sensor_id;sensor_type;location;lat;lon;timestamp;pressure;altitude;pressure_sealevel;temperature;humidity
78210;BME280;67485;48.816;9.930;2024-03-23T00:55:34;96165.84;;;7.00;87.53
78210;BME280;67485;48.816;9.930;2024-03-23T00:58:00;96164.84;;;7.05;87.07
78210;BME280;67485;48.816;9.930;2024-03-23T01:00:26;96156.28;;;7.00;87.29
78210;BME280;67485;48.816;9.930;2024-03-23T01:02:51;96160.75;;;6.93;88.35
78210;BME280;67485;48.816;9.930;2024-03-23T01:05:17;96150.47;;;6.87;87.72
78210;BME280;67485;48.816;9.930;2024-03-23T01:07:43;96149.78;;;6.80;87.97
78210;BME280;67485;48.816;9.930;2024-03-23T01:10:09;96154.31;;;6.71;88.66
78210;BME280;67485;48.816;9.930;2024-03-23T01:12:34;96145.91;;;6.59;89.22
78210;BME280;67485;48.816;9.930;2024-03-23T01:15:00;96146.81;;;6.57;88.92
78210;BME280;67485;48.816;9.930;2024-03-23T01:17:25;96137.91;;;6.67;88.99
78210;BME280;67485;48.816;9.930;2024-03-23T01:19:51;96139.31;;;6.84;88.01
78210;BME280;67485;48.816;9.930;2024-03-23T01:22:17;96134.53;;;7.03;86.66
78210;BME280;67485;48.816;9.930;2024-03-23T01:24:43;96122.16;;;7.11;85.94
78210;BME280;67485;48.816;9.930;2024-03-23T01:27:08;96130.75;;;7.16;85.24
78210;BME280;67485;48.816;9.930;2024-03-23T01:29:34;96127.66;;;6.98;86.17
78210;BME280;67485;48.816;9.930;2024-03-23T01:32:00;96116.63;;;6.87;86.52
78210;BME280;67485;48.816;9.930;2024-03-23T01:34:25;96117.72;;;6.77;87.26
78210;BME280;67485;48.816;9.930;2024-03-23T01:36:52;96113.63;;;6.67;88.29
78210;BME280;67485;48.816;9.930;2024-03-23T01:39:17;96111.16;;;6.60;88.26
78210;BME280;67485;48.816;9.930;2024-03-23T01:41:43;96100.03;;;6.54;88.70
78210;BME280;67485;48.816;9.930;2024-03-23T01:44:09;96103.41;;;6.59;88.55
78210;BME280;67485;48.816;9.930;2024-03-23T01:46:37;96101.72;;;6.55;88.87
78210;BME280;67485;48.816;9.930;2024-03-23T01:49:04;96101.72;;;6.55;88.77
78210;BME280;67485;48.816;9.930;2024-03-23T01:51:31;96097.25;;;6.61;88.33
78210;BME280;67485;48.816;9.930;2024-03-23T01:53:58;96094.19;;;6.81;87.61
78210;BME280;67485;48.816;9.930;2024-03-23T01:56:26;96080.25;;;6.84;87.31
78210;BME280;67485;48.816;9.930;2024-03-23T01:58:52;96071.56;;;6.85;87.61
78210;BME280;67485;48.816;9.930;2024-03-23T02:01:17;96075.19;;;6.78;87.77
78210;BME280;67485;48.816;9.930;2024-03-23T02:03:43;96071.00;;;6.71;87.96
78210;BME280;67485;48.816;9.930;2024-03-23T02:06:08;96072.53;;;6.42;89.14
78210;BME280;67485;48.816;9.930;2024-03-23T02:08:34;96061.88;;;6.12;90.41
78210;BME280;67485;48.816;9.930;2024-03-23T02:11:00;96055.50;;;5.83;90.48
78210;BME280;67485;48.816;9.930;2024-03-23T02:13:25;96050.28;;;5.86;92.09
78210;BME280;67485;48.816;9.930;2024-03-23T02:15:52;96051.84;;;5.93;91.82
78210;BME280;67485;48.816;9.930;2024-03-23T02:18:18;96039.47;;;6.06;90.94
78210;BME280;67485;48.816;9.930;2024-03-23T02:20:44;96035.78;;;6.16;91.46
78210;BME280;67485;48.816;9.930;2024-03-23T02:23:16;96034.59;;;6.31;90.36
78210;BME280;67485;48.816;9.930;2024-03-23T02:25:43;96031.69;;;6.45;89.47
78210;BME280;67485;48.816;9.930;2024-03-23T02:28:09;96028.16;;;6.48;90.33
78210;BME280;67485;48.816;9.930;2024-03-23T02:30:35;96015.97;;;6.50;89.84
78210;BME280;67485;48.816;9.930;2024-03-23T02:33:01;96015.72;;;6.59;89.25
78210;BME280;67485;48.816;9.930;2024-03-23T02:35:26;96010.75;;;6.50;89.80
78210;BME280;67485;48.816;9.930;2024-03-23T02:37:52;96013.41;;;6.48;89.81
78210;BME280;67485;48.816;9.930;2024-03-23T02:40:20;96006.38;;;6.51;89.64
78210;BME280;67485;48.816;9.930;2024-03-23T02:42:46;96002.22;;;6.43;89.87
78210;BME280;67485;48.816;9.930;2024-03-23T02:45:11;95986.50;;;6.48;89.86
78210;BME280;67485;48.816;9.930;2024-03-23T02:47:37;95985.63;;;6.49;89.77
78210;BME280;67485;48.816;9.930;2024-03-23T02:50:03;95992.06;;;6.32;90.42
78210;BME280;67485;48.816;9.930;2024-03-23T02:52:30;95985.16;;;6.31;90.79
78210;BME280;67485;48.816;9.930;2024-03-23T02:54:56;95982.59;;;6.28;91.11
78210;BME280;67485;48.816;9.930;2024-03-23T02:57:22;95983.38;;;6.33;91.23
78210;BME280;67485;48.816;9.930;2024-03-23T02:59:48;95978.94;;;6.37;90.74
78210;BME280;67485;48.816;9.930;2024-03-23T03:02:15;95986.59;;;6.45;91.10
78210;BME280;67485;48.816;9.930;2024-03-23T03:04:41;95978.63;;;6.51;91.11
78210;BME280;67485;48.816;9.930;2024-03-23T03:07:07;95981.28;;;6.48;91.44
78210;BME280;67485;48.816;9.930;2024-03-23T03:09:32;95977.81;;;6.49;91.67
78210;BME280;67485;48.816;9.930;2024-03-23T03:12:01;95973.44;;;6.51;90.18
78210;BME280;67485;48.816;9.930;2024-03-23T03:14:27;95975.19;;;6.49;90.63
78210;BME280;67485;48.816;9.930;2024-03-23T03:16:53;95973.47;;;6.48;89.78
78210;BME280;67485;48.816;9.930;2024-03-23T03:19:19;95966.69;;;6.42;90.09
78210;BME280;67485;48.816;9.930;2024-03-23T03:21:45;95970.31;;;6.35;90.58
78210;BME280;67485;48.816;9.930;2024-03-23T03:24:10;95960.03;;;6.30;90.56
78210;BME280;67485;48.816;9.930;2024-03-23T03:26:36;95959.88;;;6.37;90.88
78210;BME280;67485;48.816;9.930;2024-03-23T03:29:02;95961.53;;;6.39;90.36
78210;BME280;67485;48.816;9.930;2024-03-23T03:31:28;95965.78;;;6.45;89.91
78210;BME280;67485;48.816;9.930;2024-03-23T03:33:54;95960.63;;;6.42;88.90
78210;BME280;67485;48.816;9.930;2024-03-23T03:36:19;95950.59;;;6.26;89.78
78210;BME280;67485;48.816;9.930;2024-03-23T03:38:45;95947.44;;;6.12;90.81
78210;BME280;67485;48.816;9.930;2024-03-23T03:41:11;95945.00;;;6.04;91.85
78210;BME280;67485;48.816;9.930;2024-03-23T03:43:36;95943.94;;;6.13;92.18
78210;BME280;67485;48.816;9.930;2024-03-23T03:46:03;95943.56;;;6.28;91.94
78210;BME280;67485;48.816;9.930;2024-03-23T03:48:29;95942.50;;;6.37;92.03
78210;BME280;67485;48.816;9.930;2024-03-23T03:50:55;95939.81;;;6.42;91.08
78210;BME280;67485;48.816;9.930;2024-03-23T03:53:21;95934.25;;;6.57;89.85
78210;BME280;67485;48.816;9.930;2024-03-23T03:55:46;95940.97;;;6.64;90.80
78210;BME280;67485;48.816;9.930;2024-03-23T03:58:12;95935.75;;;6.66;90.38
78210;BME280;67485;48.816;9.930;2024-03-23T04:00:38;95936.53;;;6.68;90.07
78210;BME280;67485;48.816;9.930;2024-03-23T04:03:04;95934.72;;;6.72;89.29
78210;BME280;67485;48.816;9.930;2024-03-23T04:05:29;95928.53;;;6.76;89.28
78210;BME280;67485;48.816;9.930;2024-03-23T04:07:55;95920.63;;;6.80;89.50
78210;BME280;67485;48.816;9.930;2024-03-23T04:10:21;95924.25;;;6.73;89.81
78210;BME280;67485;48.816;9.930;2024-03-23T04:12:47;95923.31;;;6.76;90.23
78210;BME280;67485;48.816;9.930;2024-03-23T04:15:13;95909.47;;;6.75;89.93
78210;BME280;67485;48.816;9.930;2024-03-23T04:17:39;95912.84;;;6.79;90.47
78210;BME280;67485;48.816;9.930;2024-03-23T04:20:05;95897.22;;;6.79;89.78
78210;BME280;67485;48.816;9.930;2024-03-23T04:22:34;95892.59;;;6.90;89.49
78210;BME280;67485;48.816;9.930;2024-03-23T04:25:00;95896.28;;;6.81;90.90
78210;BME280;67485;48.816;9.930;2024-03-23T04:27:35;95878.19;;;6.77;91.55
78210;BME280;67485;48.816;9.930;2024-03-23T04:30:01;95886.88;;;6.76;91.28
78210;BME280;67485;48.816;9.930;2024-03-23T04:32:27;95869.47;;;6.78;90.87
78210;BME280;67485;48.816;9.930;2024-03-23T04:34:54;95856.63;;;6.72;90.91
78210;BME280;67485;48.816;9.930;2024-03-23T04:37:20;95849.63;;;6.74;91.02
78210;BME280;67485;48.816;9.930;2024-03-23T04:39:46;95833.78;;;6.81;92.34
78210;BME280;67485;48.816;9.930;2024-03-23T04:42:15;95814.91;;;6.73;92.00
78210;BME280;67485;48.816;9.930;2024-03-23T04:44:40;95819.34;;;6.70;91.73
78210;BME280;67485;48.816;9.930;2024-03-23T04:47:06;95815.94;;;6.68;92.08
78210;BME280;67485;48.816;9.930;2024-03-23T04:49:33;95811.34;;;6.77;92.99
78210;BME280;67485;48.816;9.930;2024-03-23T04:51:58;95805.19;;;6.80;93.03
78210;BME280;67485;48.816;9.930;2024-03-23T04:54:24;95795.56;;;6.82;93.63
78210;BME280;67485;48.816;9.930;2024-03-23T04:56:51;95793.56;;;6.92;93.95
78210;BME280;67485;48.816;9.930;2024-03-23T04:59:16;95793.28;;;7.03;94.20
78210;BME280;67485;48.816;9.930;2024-03-23T05:01:42;95782.66;;;7.09;93.78
78210;BME280;67485;48.816;9.930;2024-03-23T05:04:09;95781.78;;;7.10;94.08
78210;BME280;67485;48.816;9.930;2024-03-23T05:06:34;95781.66;;;7.13;93.50
78210;BME280;67485;48.816;9.930;2024-03-23T05:09:00;95779.78;;;7.18;93.68
78210;BME280;67485;48.816;9.930;2024-03-23T05:11:32;95770.88;;;7.25;93.71
78210;BME280;67485;48.816;9.930;2024-03-23T05:13:58;95782.72;;;7.36;93.25
78210;BME280;67485;48.816;9.930;2024-03-23T05:16:23;95775.03;;;7.59;93.40
78210;BME280;67485;48.816;9.930;2024-03-23T05:18:49;95789.66;;;7.65;93.31
78210;BME280;67485;48.816;9.930;2024-03-23T05:21:15;95793.53;;;7.80;93.72
78210;BME280;67485;48.816;9.930;2024-03-23T05:23:40;95843.28;;;8.01;94.28
78210;BME280;67485;48.816;9.930;2024-03-23T05:26:06;95841.44;;;7.77;90.79
78210;BME280;67485;48.816;9.930;2024-03-23T05:28:31;95835.53;;;7.71;91.92
78210;BME280;67485;48.816;9.930;2024-03-23T05:30:57;95838.78;;;7.79;93.75
78210;BME280;67485;48.816;9.930;2024-03-23T05:33:23;95847.63;;;8.02;96.49
78210;BME280;67485;48.816;9.930;2024-03-23T05:35:59;95856.44;;;8.24;99.57
78210;BME280;67485;48.816;9.930;2024-03-23T05:38:25;95895.09;;;8.40;100.00
78210;BME280;67485;48.816;9.930;2024-03-23T05:40:55;95912.25;;;8.49;100.00
78210;BME280;67485;48.816;9.930;2024-03-23T05:43:22;95908.72;;;8.50;100.00
78210;BME280;67485;48.816;9.930;2024-03-23T05:45:57;95915.81;;;8.46;100.00
78210;BME280;67485;48.816;9.930;2024-03-23T05:48:23;95914.31;;;8.37;100.00
78210;BME280;67485;48.816;9.930;2024-03-23T05:50:49;95915.34;;;8.33;100.00
78210;BME280;67485;48.816;9.930;2024-03-23T05:53:16;95903.19;;;8.32;100.00
78210;BME280;67485;48.816;9.930;2024-03-23T05:55:42;95912.78;;;8.32;100.00
78210;BME280;67485;48.816;9.930;2024-03-23T05:58:08;95903.19;;;8.32;100.00
78210;BME280;67485;48.816;9.930;2024-03-23T06:00:34;95899.72;;;8.32;100.00
78210;BME280;67485;48.816;9.930;2024-03-23T06:03:00;95899.72;;;8.32;100.00
78210;BME280;67485;48.816;9.930;2024-03-23T06:05:26;95903.13;;;8.34;100.00
78210;BME280;67485;48.816;9.930;2024-03-23T06:07:51;95911.88;;;8.33;100.00
78210;BME280;67485;48.816;9.930;2024-03-23T06:10:18;95913.56;;;8.34;100.00
78210;BME280;67485;48.816;9.930;2024-03-23T06:12:45;95912.72;;;8.33;100.00
78210;BME280;67485;48.816;9.930;2024-03-23T06:15:11;95907.50;;;8.33;100.00
78210;BME280;67485;48.816;9.930;2024-03-23T06:17:37;95928.31;;;8.35;100.00
78210;BME280;67485;48.816;9.930;2024-03-23T06:20:04;95939.66;;;8.34;100.00
78210;BME280;67485;48.816;9.930;2024-03-23T06:22:32;95953.66;;;8.33;100.00
78210;BME280;67485;48.816;9.930;2024-03-23T06:24:57;95962.47;;;8.28;100.00
78210;BME280;67485;48.816;9.930;2024-03-23T06:27:23;95964.34;;;8.23;100.00
78210;BME280;67485;48.816;9.930;2024-03-23T06:29:49;95974.91;;;8.20;100.00
78210;BME280;67485;48.816;9.930;2024-03-23T06:32:14;95981.91;;;8.18;100.00
78210;BME280;67485;48.816;9.930;2024-03-23T06:34:44;95973.28;;;8.16;100.00
78210;BME280;67485;48.816;9.930;2024-03-23T06:37:10;95971.59;;;8.15;100.00
78210;BME280;67485;48.816;9.930;2024-03-23T06:39:36;95983.81;;;8.13;100.00
78210;BME280;67485;48.816;9.930;2024-03-23T06:42:03;95973.38;;;8.13;100.00
78210;BME280;67485;48.816;9.930;2024-03-23T06:44:29;95989.94;;;8.12;100.00
78210;BME280;67485;48.816;9.930;2024-03-23T06:46:55;96004.03;;;8.06;100.00
78210;BME280;67485;48.816;9.930;2024-03-23T06:49:22;96006.66;;;8.05;100.00
78210;BME280;67485;48.816;9.930;2024-03-23T06:51:48;96013.69;;;8.03;100.00
78210;BME280;67485;48.816;9.930;2024-03-23T06:54:14;96018.91;;;8.03;100.00
78210;BME280;67485;48.816;9.930;2024-03-23T06:56:40;96025.81;;;8.05;100.00
78210;BME280;67485;48.816;9.930;2024-03-23T06:59:06;96029.34;;;8.03;100.00
78210;BME280;67485;48.816;9.930;2024-03-23T07:01:32;96025.94;;;8.01;100.00
78210;BME280;67485;48.816;9.930;2024-03-23T07:03:58;96032.09;;;7.98;100.00
78210;BME280;67485;48.816;9.930;2024-03-23T07:06:23;96028.63;;;7.98;100.00
78210;BME280;67485;48.816;9.930;2024-03-23T07:08:49;96025.94;;;8.01;100.00
78210;BME280;67485;48.816;9.930;2024-03-23T07:11:21;96045.72;;;8.08;100.00
78210;BME280;67485;48.816;9.930;2024-03-23T07:13:49;96039.44;;;8.15;100.00
78210;BME280;67485;48.816;9.930;2024-03-23T07:16:15;96037.44;;;8.23;100.00
78210;BME280;67485;48.816;9.930;2024-03-23T07:18:41;96037.19;;;8.33;100.00
78210;BME280;67485;48.816;9.930;2024-03-23T07:21:07;96045.72;;;8.38;100.00
78210;BME280;67485;48.816;9.930;2024-03-23T07:23:33;96052.66;;;8.39;100.00
78210;BME280;67485;48.816;9.930;2024-03-23T07:26:05;96042.41;;;8.33;100.00
78210;BME280;67485;48.816;9.930;2024-03-23T07:28:31;96041.63;;;8.29;100.00
78210;BME280;67485;48.816;9.930;2024-03-23T07:31:08;96028.28;;;8.10;100.00
78210;BME280;67485;48.816;9.930;2024-03-23T07:33:35;96029.13;;;8.10;100.00
78210;BME280;67485;48.816;9.930;2024-03-23T07:36:01;96037.63;;;8.17;100.00
78210;BME280;67485;48.816;9.930;2024-03-23T07:38:28;96059.97;;;8.27;100.00
78210;BME280;67485;48.816;9.930;2024-03-23T07:41:10;96072.63;;;8.40;100.00
78210;BME280;67485;48.816;9.930;2024-03-23T07:43:40;96073.00;;;8.27;99.48
78210;BME280;67485;48.816;9.930;2024-03-23T07:46:06;96067.75;;;8.29;100.00
78210;BME280;67485;48.816;9.930;2024-03-23T07:48:32;96054.91;;;8.21;100.00
78210;BME280;67485;48.816;9.930;2024-03-23T07:53:28;96082.53;;;8.28;99.44
78210;BME280;67485;48.816;9.930;2024-03-23T07:55:58;96085.47;;;8.18;100.00
78210;BME280;67485;48.816;9.930;2024-03-23T07:58:25;96098.81;;;8.07;100.00
78210;BME280;67485;48.816;9.930;2024-03-23T08:00:55;96098.59;;;8.15;99.92
78210;BME280;67485;48.816;9.930;2024-03-23T08:03:21;96109.97;;;8.12;97.77
78210;BME280;67485;48.816;9.930;2024-03-23T08:05:47;96119.69;;;8.07;96.29
78210;BME280;67485;48.816;9.930;2024-03-23T08:08:13;96115.47;;;8.03;96.84
78210;BME280;67485;48.816;9.930;2024-03-23T08:10:52;96111.03;;;8.05;96.25
78210;BME280;67485;48.816;9.930;2024-03-23T08:13:18;96133.16;;;7.91;96.02
78210;BME280;67485;48.816;9.930;2024-03-23T08:15:44;96145.50;;;7.85;96.95
78210;BME280;67485;48.816;9.930;2024-03-23T08:18:11;96151.59;;;7.85;96.17
78210;BME280;67485;48.816;9.930;2024-03-23T08:20:37;96157.06;;;7.74;97.25
78210;BME280;67485;48.816;9.930;2024-03-23T08:23:05;96146.59;;;7.76;96.78
78210;BME280;67485;48.816;9.930;2024-03-23T08:25:31;96153.53;;;7.77;95.46
78210;BME280;67485;48.816;9.930;2024-03-23T08:27:57;96146.13;;;7.94;94.87
78210;BME280;67485;48.816;9.930;2024-03-23T08:30:23;96150.53;;;8.24;94.16
78210;BME280;67485;48.816;9.930;2024-03-23T08:32:49;96164.75;;;8.45;92.74
78210;BME280;67485;48.816;9.930;2024-03-23T08:35:15;96167.53;;;8.39;91.68
78210;BME280;67485;48.816;9.930;2024-03-23T08:37:40;96166.06;;;8.28;90.71
78210;BME280;67485;48.816;9.930;2024-03-23T08:40:06;96171.38;;;8.25;90.44
78210;BME280;67485;48.816;9.930;2024-03-23T08:42:34;96178.34;;;8.25;90.28
78210;BME280;67485;48.816;9.930;2024-03-23T08:44:59;96189.97;;;8.46;90.03
78210;BME280;67485;48.816;9.930;2024-03-23T08:47:25;96194.59;;;8.68;90.07
78210;BME280;67485;48.816;9.930;2024-03-23T08:49:51;96213.06;;;8.62;90.09
78210;BME280;67485;48.816;9.930;2024-03-23T08:52:16;96223.31;;;8.35;91.46
78210;BME280;67485;48.816;9.930;2024-03-23T08:54:42;96248.53;;;8.69;92.49
78210;BME280;67485;48.816;9.930;2024-03-23T08:57:08;96258.91;;;8.72;91.50
78210;BME280;67485;48.816;9.930;2024-03-23T08:59:34;96269.94;;;8.50;92.06
78210;BME280;67485;48.816;9.930;2024-03-23T09:02:00;96264.19;;;8.69;91.94
78210;BME280;67485;48.816;9.930;2024-03-23T09:04:26;96268.56;;;8.68;91.16
78210;BME280;67485;48.816;9.930;2024-03-23T09:06:51;96274.84;;;8.28;90.52
78210;BME280;67485;48.816;9.930;2024-03-23T09:09:17;96307.72;;;8.01;95.22
78210;BME280;67485;48.816;9.930;2024-03-23T09:11:43;96311.81;;;7.75;97.50
78210;BME280;67485;48.816;9.930;2024-03-23T09:14:09;96327.38;;;7.40;97.14
78210;BME280;67485;48.816;9.930;2024-03-23T09:16:35;96321.28;;;7.40;96.98
78210;BME280;67485;48.816;9.930;2024-03-23T09:19:01;96332.66;;;7.75;96.91
78210;BME280;67485;48.816;9.930;2024-03-23T09:21:26;96331.66;;;7.43;96.94
78210;BME280;67485;48.816;9.930;2024-03-23T09:23:52;96346.50;;;7.39;97.61
78210;BME280;67485;48.816;9.930;2024-03-23T09:26:18;96342.88;;;7.46;97.47
78210;BME280;67485;48.816;9.930;2024-03-23T09:28:44;96340.69;;;7.67;97.59
78210;BME280;67485;48.816;9.930;2024-03-23T09:31:09;96333.72;;;7.68;98.29
78210;BME280;67485;48.816;9.930;2024-03-23T09:33:39;96323.72;;;7.49;98.20
78210;BME280;67485;48.816;9.930;2024-03-23T09:36:06;96333.25;;;7.49;98.75
78210;BME280;67485;48.816;9.930;2024-03-23T09:38:32;96338.34;;;7.56;99.31
78210;BME280;67485;48.816;9.930;2024-03-23T09:40:58;96341.59;;;7.65;97.64
78210;BME280;67485;48.816;9.930;2024-03-23T09:43:28;96351.72;;;7.80;96.27
78210;BME280;67485;48.816;9.930;2024-03-23T09:45:53;96368.03;;;7.88;95.38
78210;BME280;67485;48.816;9.930;2024-03-23T09:48:19;96364.13;;;7.69;93.81
78210;BME280;67485;48.816;9.930;2024-03-23T09:50:46;96341.44;;;8.08;91.72
78210;BME280;67485;48.816;9.930;2024-03-23T09:53:13;96324.09;;;8.42;88.33
78210;BME280;67485;48.816;9.930;2024-03-23T09:55:41;96334.16;;;10.07;80.43
78210;BME280;67485;48.816;9.930;2024-03-23T09:58:07;96340.50;;;10.00;77.93
78210;BME280;67485;48.816;9.930;2024-03-23T10:00:34;96348.16;;;9.19;79.26
78210;BME280;67485;48.816;9.930;2024-03-23T10:03:01;96359.53;;;8.54;80.63
78210;BME280;67485;48.816;9.930;2024-03-23T10:05:30;96367.88;;;7.94;84.83
78210;BME280;67485;48.816;9.930;2024-03-23T10:10:43;96387.09;;;7.09;86.68
78210;BME280;67485;48.816;9.930;2024-03-23T10:13:09;96364.28;;;7.62;85.87
78210;BME280;67485;48.816;9.930;2024-03-23T10:15:36;96371.97;;;7.67;86.48
78210;BME280;67485;48.816;9.930;2024-03-23T10:18:18;96374.50;;;8.09;84.27
78210;BME280;67485;48.816;9.930;2024-03-23T10:23:29;96383.00;;;7.80;83.34
78210;BME280;67485;48.816;9.930;2024-03-23T10:25:55;96373.50;;;7.37;84.76
78210;BME280;67485;48.816;9.930;2024-03-23T10:28:21;96360.75;;;9.05;79.89
78210;BME280;67485;48.816;9.930;2024-03-23T10:30:46;96356.72;;;8.60;76.98
78210;BME280;67485;48.816;9.930;2024-03-23T10:33:12;96354.31;;;8.16;80.02
78210;BME280;67485;48.816;9.930;2024-03-23T10:35:38;96344.66;;;8.20;82.39
78210;BME280;67485;48.816;9.930;2024-03-23T10:38:05;96333.72;;;9.36;77.36
78210;BME280;67485;48.816;9.930;2024-03-23T10:40:34;96325.75;;;10.76;70.26
78210;BME280;67485;48.816;9.930;2024-03-23T10:43:00;96339.94;;;11.67;66.22
78210;BME280;67485;48.816;9.930;2024-03-23T10:45:28;96327.22;;;12.02;62.65
78210;BME280;67485;48.816;9.930;2024-03-23T10:47:53;96337.09;;;12.18;61.19
78210;BME280;67485;48.816;9.930;2024-03-23T10:50:19;96335.81;;;12.69;61.61
78210;BME280;67485;48.816;9.930;2024-03-23T10:52:47;96340.94;;;12.31;61.70
78210;BME280;67485;48.816;9.930;2024-03-23T10:55:16;96328.72;;;12.92;61.27
78210;BME280;67485;48.816;9.930;2024-03-23T10:57:53;96320.44;;;12.80;59.51
78210;BME280;67485;48.816;9.930;2024-03-23T11:00:19;96336.44;;;11.21;62.11
78210;BME280;67485;48.816;9.930;2024-03-23T11:02:50;96335.44;;;12.37;60.39
78210;BME280;67485;48.816;9.930;2024-03-23T11:05:29;96325.91;;;11.68;61.00
78210;BME280;67485;48.816;9.930;2024-03-23T11:07:54;96335.16;;;11.55;62.30
78210;BME280;67485;48.816;9.930;2024-03-23T11:10:25;96326.31;;;11.33;62.84
78210;BME280;67485;48.816;9.930;2024-03-23T11:12:51;96320.22;;;10.85;65.36
78210;BME280;67485;48.816;9.930;2024-03-23T11:15:18;96337.97;;;11.72;62.19
78210;BME280;67485;48.816;9.930;2024-03-23T11:18:02;96320.72;;;12.54;56.21
78210;BME280;67485;48.816;9.930;2024-03-23T11:20:32;96325.59;;;13.23;53.02
78210;BME280;67485;48.816;9.930;2024-03-23T11:22:59;96324.25;;;12.53;54.73
78210;BME280;67485;48.816;9.930;2024-03-23T11:25:26;96329.78;;;11.58;55.82
78210;BME280;67485;48.816;9.930;2024-03-23T11:27:56;96341.44;;;11.27;55.87
78210;BME280;67485;48.816;9.930;2024-03-23T11:32:51;96371.19;;;9.95;58.41
78210;BME280;67485;48.816;9.930;2024-03-23T11:35:34;96396.09;;;9.18;63.13
78210;BME280;67485;48.816;9.930;2024-03-23T11:40:29;96402.66;;;8.33;68.61
78210;BME280;67485;48.816;9.930;2024-03-23T11:42:59;96417.66;;;7.85;71.68
78210;BME280;67485;48.816;9.930;2024-03-23T11:45:25;96427.66;;;7.65;75.19
78210;BME280;67485;48.816;9.930;2024-03-23T11:48:10;96439.44;;;7.42;78.15
78210;BME280;67485;48.816;9.930;2024-03-23T11:50:39;96457.69;;;6.96;82.29
78210;BME280;67485;48.816;9.930;2024-03-23T11:55:52;96476.31;;;6.17;89.39
78210;BME280;67485;48.816;9.930;2024-03-23T11:58:20;96481.78;;;6.00;90.62
78210;BME280;67485;48.816;9.930;2024-03-23T12:01:00;96483.47;;;6.03;91.67
78210;BME280;67485;48.816;9.930;2024-03-23T12:03:30;96454.72;;;6.12;91.22
78210;BME280;67485;48.816;9.930;2024-03-23T12:05:59;96447.09;;;6.57;89.19
78210;BME280;67485;48.816;9.930;2024-03-23T12:11:06;96428.63;;;6.70;86.23
78210;BME280;67485;48.816;9.930;2024-03-23T12:13:33;96428.41;;;6.82;85.01
78210;BME280;67485;48.816;9.930;2024-03-23T12:16:20;96429.69;;;7.08;84.00
78210;BME280;67485;48.816;9.930;2024-03-23T12:18:48;96429.19;;;7.33;82.83
78210;BME280;67485;48.816;9.930;2024-03-23T12:21:15;96424.38;;;7.55;82.78
78210;BME280;67485;48.816;9.930;2024-03-23T12:23:41;96417.56;;;7.49;82.07
78210;BME280;67485;48.816;9.930;2024-03-23T12:26:07;96417.47;;;7.54;83.06
78210;BME280;67485;48.816;9.930;2024-03-23T12:28:33;96413.78;;;7.64;82.97
78210;BME280;67485;48.816;9.930;2024-03-23T12:30:58;96401.00;;;8.28;81.80
78210;BME280;67485;48.816;9.930;2024-03-23T12:33:24;96404.81;;;8.53;77.87
78210;BME280;67485;48.816;9.930;2024-03-23T12:35:50;96411.94;;;8.44;75.66
78210;BME280;67485;48.816;9.930;2024-03-23T12:38:17;96405.81;;;8.82;75.64
78210;BME280;67485;48.816;9.930;2024-03-23T12:40:49;96418.50;;;8.61;75.61
78210;BME280;67485;48.816;9.930;2024-03-23T12:43:16;96429.63;;;8.33;77.32
78210;BME280;67485;48.816;9.930;2024-03-23T12:45:49;96424.16;;;8.05;77.72
78210;BME280;67485;48.816;9.930;2024-03-23T12:48:15;96430.53;;;7.93;78.71
78210;BME280;67485;48.816;9.930;2024-03-23T12:50:40;96421.03;;;7.90;79.52
78210;BME280;67485;48.816;9.930;2024-03-23T12:53:06;96423.59;;;7.92;79.97
78210;BME280;67485;48.816;9.930;2024-03-23T12:55:32;96430.44;;;7.98;78.53
78210;BME280;67485;48.816;9.930;2024-03-23T12:58:00;96429.34;;;8.08;79.17
78210;BME280;67485;48.816;9.930;2024-03-23T13:00:25;96423.84;;;8.20;79.54
78210;BME280;67485;48.816;9.930;2024-03-23T13:02:51;96418.94;;;8.42;77.72
78210;BME280;67485;48.816;9.930;2024-03-23T13:05:17;96406.84;;;8.38;76.64
78210;BME280;67485;48.816;9.930;2024-03-23T13:07:42;96412.03;;;8.41;76.91
78210;BME280;67485;48.816;9.930;2024-03-23T13:10:08;96401.00;;;8.28;75.16
78210;BME280;67485;48.816;9.930;2024-03-23T13:12:34;96398.59;;;8.57;75.58
78210;BME280;67485;48.816;9.930;2024-03-23T13:15:00;96401.25;;;8.55;74.77
78210;BME280;67485;48.816;9.930;2024-03-23T13:17:27;96395.72;;;8.68;74.02
78210;BME280;67485;48.816;9.930;2024-03-23T13:19:56;96378.84;;;9.13;73.13
78210;BME280;67485;48.816;9.930;2024-03-23T13:22:22;96376.75;;;8.92;71.42
78210;BME280;67485;48.816;9.930;2024-03-23T13:24:48;96383.66;;;8.62;72.47
78210;BME280;67485;48.816;9.930;2024-03-23T13:27:13;96375.47;;;8.76;72.40
78210;BME280;67485;48.816;9.930;2024-03-23T13:29:39;96375.84;;;8.95;71.91
78210;BME280;67485;48.816;9.930;2024-03-23T13:32:05;96375.28;;;9.15;71.98
78210;BME280;67485;48.816;9.930;2024-03-23T13:34:31;96370.31;;;9.06;70.22
78210;BME280;67485;48.816;9.930;2024-03-23T13:36:58;96355.84;;;8.92;67.98
78210;BME280;67485;48.816;9.930;2024-03-23T13:39:25;96353.94;;;8.66;68.39
78210;BME280;67485;48.816;9.930;2024-03-23T13:41:52;96358.75;;;8.50;69.20
78210;BME280;67485;48.816;9.930;2024-03-23T13:44:18;96354.31;;;8.52;69.79
78210;BME280;67485;48.816;9.930;2024-03-23T13:46:44;96350.78;;;8.19;71.17
78210;BME280;67485;48.816;9.930;2024-03-23T13:49:28;96357.50;;;8.29;71.08
78210;BME280;67485;48.816;9.930;2024-03-23T13:51:54;96343.88;;;8.52;72.23
78210;BME280;67485;48.816;9.930;2024-03-23T13:54:21;96337.22;;;9.05;70.88
78210;BME280;67485;48.816;9.930;2024-03-23T13:56:56;96329.81;;;8.89;69.62
78210;BME280;67485;48.816;9.930;2024-03-23T13:59:22;96326.56;;;8.81;70.66
78210;BME280;67485;48.816;9.930;2024-03-23T14:01:51;96311.41;;;8.94;70.11
78210;BME280;67485;48.816;9.930;2024-03-23T14:04:17;96308.47;;;9.05;69.53
78210;BME280;67485;48.816;9.930;2024-03-23T14:06:45;96306.16;;;9.25;67.74
78210;BME280;67485;48.816;9.930;2024-03-23T14:09:14;96299.72;;;9.06;66.72
78210;BME280;67485;48.816;9.930;2024-03-23T14:11:41;96286.06;;;8.98;66.72
78210;BME280;67485;48.816;9.930;2024-03-23T14:14:09;96293.97;;;8.95;65.29
78210;BME280;67485;48.816;9.930;2024-03-23T14:16:35;96284.41;;;8.93;65.14
78210;BME280;67485;48.816;9.930;2024-03-23T14:19:02;96284.69;;;8.84;65.86